This is the latest recevied weather packets stored in our database for station/object HI6LT. If no packets are shown the sender has not sent any weather packets the latest 10 day(s).
| Time | Temp. | Humidity | Pressure | Rain* | Wind** | Luminosity | Snow |
|---|---|---|---|---|---|---|---|
| 1778055462 | 14.44° C | 93% | 1035.4 hPa | 0 mm | - | - | - |
| 1778055102 | 14.44° C | 93% | 1035.4 hPa | 0 mm | - | - | - |
| 1778053302 | 12.78° C | 93% | 1035.1 hPa | 0 mm | - | - | - |
| 1778052759 | 12.78° C | 90% | 1034.9 hPa | 0 mm | - | - | - |
| 1778051499 | 14.44° C | 93% | 1035.2 hPa | 0 mm | - | - | - |
| 1778051467 | 13.89° C | 96% | 1035.6 hPa | 0 mm | - | - | - |
| 1778050057 | 13.89° C | 96% | 1035.5 hPa | 0 mm | - | - | - |
| 1778049927 | 13.89° C | 97% | 1035.7 hPa | 0 mm | - | - | - |
| 1778049697 | 13.89° C | 96% | 1035.6 hPa | 0 mm | - | - | - |
| 1778047906 | 13.89° C | 97% | 1035.7 hPa | 0 mm | - | - | - |
| 1778047901 | 14.44° C | 96% | 1036.2 hPa | 0 mm | - | - | - |
| 1778047355 | 13.89° C | 96% | 1035.6 hPa | 0 mm | - | - | - |
| 1778047301 | 15° C | 95% | 1036.6 hPa | 0 mm | - | - | - |
| 1778046104 | 13.89° C | 96% | 1035.7 hPa | 0 mm | - | - | - |
| 1778044664 | 14.44° C | 96% | 1036.2 hPa | 0 mm | - | - | - |
| 1778044520 | 15.56° C | 94% | 1036.6 hPa | 0 mm | - | - | - |
| 1778044303 | 14.44° C | 96% | 1036.2 hPa | 0 mm | - | - | - |
| 1778042502 | 15° C | 95% | 1036.6 hPa | 0 mm | - | - | - |
| 1778042120 | 16.11° C | 94% | 1036.8 hPa | 0 mm | - | - | - |
| 1778041962 | 15.56° C | 94% | 1036.7 hPa | 0 mm | - | - | - |
| 1778040702 | 15.56° C | 94% | 1036.6 hPa | 0 mm | - | - | - |
| 1778040668 | 16.67° C | 95% | 1037.4 hPa | 0 mm | - | - | - |
| 1778039261 | 16.11° C | 94% | 1036.7 hPa | 0 mm | - | - | - |
| 1778038900 | 16.11° C | 94% | 1036.8 hPa | 0 mm | - | - | - |
| 1778037099 | 16.67° C | 95% | 1037.4 hPa | 0 mm | - | - | - |
* Rain latest hour (hover to see other rain measurements)
** Current wind speed in m/s (hover to see current wind gust speed)